Darstellungsparameter: Aktuell verwendete Einstellungen:
Skalierung der Graphiken ... ?
xyx+y,   Skalierungsfaktor:      Skalierung: Modus: x, Faktor: 1
Darstellungszeitraum ... ?
Vom - - bis: - -   Zeitraum: 24.03.2011 - 28.03.2011
Min/Max/Avg-Anzeige ... ?
Zeige MMA aktuell
Zeige MMA Monat
Zeige MMA alles
Zeige --A aktuell
Zeige --A Monat
Zeige --A alles
Keine MMA-Anzeige
MMA:
Average (ber die Originaldaten)
MMA-Basis: 23.02.2003 - 29.09.2020
Quicknavigation für Darstellung... ?
Tage:      1T, 2T, 3T, 5T -1T -2T -3T -5T +1T +2T +3T +5T
Wochen: 1W, 2W, 3W -1W -2W -3W +1W +2W +3W
Monate: 1M, 3M, 6M -1M -3M -6M +1M +3M +6M
Jahre:    1J, 3J, 5J, 10J -1J -3J -5J -10J +1J +3J +5J +10J
Nutze für die Darstellung ... ?
Originaldaten oder Mittelwerte auf ...
Stundenbasis Tagesbasis Wochenbasis
Monatsbasis Jahresbasis      Datenbasis: Original-Daten
Darstellen als:
Statistik (Auto) Statistik J:M      Darstellung:
Zur Graphik,    zurück zur Übersicht aller Sensoren.
 
Tabellarische Datenbersicht: ?
 
Sensor: Nr:Datum:Temp:Abs-Feuchte:Windchill:Wind:
Aussen-T/F 1 24-03-2011 00:11:02 4.4 C 5.55 g/m*3 4.4 C 0 km/h
2 24-03-2011 00:23:02 4.5 C 5.59 g/m*3 4.5 C 0 km/h
3 24-03-2011 00:35:02 4.3 C 5.58 g/m*3 4.3 C 0 km/h
4 24-03-2011 00:47:02 4.1 C 5.5 g/m*3 4.1 C 0 km/h
5 24-03-2011 00:59:02 4 C 5.47 g/m*3 4 C 0 km/h
6 24-03-2011 01:11:02 3.5 C 5.35 g/m*3 3.5 C 0 km/h
7 24-03-2011 01:23:02 3.6 C 5.39 g/m*3 3.6 C 0 km/h
8 24-03-2011 01:35:02 3.4 C 5.37 g/m*3 3.4 C 0 km/h
9 24-03-2011 01:47:02 3.2 C 5.3 g/m*3 3.2 C 0 km/h
10 24-03-2011 01:59:02 3.3 C 5.34 g/m*3 3.3 C 0 km/h
11 24-03-2011 02:11:02 3.1 C 5.27 g/m*3 3.1 C 0 km/h
12 24-03-2011 02:23:02 3.1 C 5.27 g/m*3 3.1 C 0 km/h
13 24-03-2011 02:35:02 3 C 5.23 g/m*3 3 C 0 km/h
14 24-03-2011 02:47:02 2.8 C 5.22 g/m*3 2.8 C 0 km/h
15 24-03-2011 02:59:02 2.7 C 5.19 g/m*3 2.7 C 0 km/h
16 24-03-2011 03:11:01 2.6 C 5.15 g/m*3 2.6 C 0 km/h
17 24-03-2011 03:23:01 2.6 C 5.21 g/m*3 2.6 C 0 km/h
18 24-03-2011 03:35:01 2.7 C 5.24 g/m*3 2.7 C 0 km/h
19 24-03-2011 03:47:01 2.6 C 5.21 g/m*3 2.6 C 0 km/h
20 24-03-2011 03:59:01 2.3 C 5.1 g/m*3 2.3 C 0 km/h
21 24-03-2011 04:11:01 2.3 C 5.1 g/m*3 2.3 C 0 km/h
22 24-03-2011 04:23:02 2.2 C 5.07 g/m*3 2.2 C 0 km/h
23 24-03-2011 04:35:01 2.4 C 5.14 g/m*3 2.4 C 0 km/h
24 24-03-2011 04:47:02 2.3 C 5.16 g/m*3 2.3 C 0 km/h
25 24-03-2011 04:59:02 2.1 C 5.04 g/m*3 2.1 C 0 km/h
Sensor: Nr:Datum:Temp:Abs-Feuchte:Windchill:Wind:
Aussen-T/F 26 24-03-2011 05:11:01 2 C 5 g/m*3 2 C 0 km/h
27 24-03-2011 05:23:02 1.8 C 4.99 g/m*3 1.8 C 0 km/h
28 24-03-2011 05:35:01 1.5 C 4.89 g/m*3 1.5 C 0 km/h
29 24-03-2011 05:47:02 1.9 C 5.02 g/m*3 1.9 C 0 km/h
30 24-03-2011 05:59:02 2 C 5.06 g/m*3 2 C 0 km/h
31 24-03-2011 06:11:01 1.6 C 4.97 g/m*3 1.6 C 0 km/h
32 24-03-2011 06:23:01 1.5 C 4.94 g/m*3 1.5 C 0 km/h
33 24-03-2011 06:35:02 1.3 C 4.87 g/m*3 1.3 C 0 km/h
34 24-03-2011 06:47:01 1.3 C 4.87 g/m*3 1.3 C 0 km/h
35 24-03-2011 06:59:02 1.3 C 4.87 g/m*3 1.3 C 0 km/h
36 24-03-2011 07:11:01 1.2 C 4.84 g/m*3 1.2 C 0 km/h
37 24-03-2011 07:23:01 1.3 C 4.87 g/m*3 1.3 C 0 km/h
38 24-03-2011 07:35:02 1.6 C 4.97 g/m*3 1.6 C 0 km/h
39 24-03-2011 07:47:01 1.8 C 5.04 g/m*3 1.8 C 0 km/h
40 24-03-2011 07:59:01 1.9 C 5.08 g/m*3 1.9 C 0 km/h
41 24-03-2011 08:11:02 2.4 C 5.25 g/m*3 2.4 C 0 km/h
42 24-03-2011 08:23:01 2.6 C 5.32 g/m*3 2.6 C 0 km/h
43 24-03-2011 08:35:02 2.8 C 5.4 g/m*3 2.8 C 0 km/h
44 24-03-2011 08:47:02 2.8 C 5.4 g/m*3 2.8 C 0 km/h
45 24-03-2011 08:59:02 3.4 C 5.62 g/m*3 3.4 C 0 km/h
46 24-03-2011 09:11:01 4.1 C 5.82 g/m*3 4.1 C 0 km/h
47 24-03-2011 09:23:02 4.1 C 5.82 g/m*3 4.1 C 0 km/h
48 24-03-2011 09:35:01 4.1 C 5.82 g/m*3 4.1 C 0 km/h
49 24-03-2011 09:47:01 6.2 C 6.69 g/m*3 6.2 C 0 km/h
50 24-03-2011 09:59:01 6.4 C 6.78 g/m*3 6.4 C 0 km/h
Sensor: Nr:Datum:Temp:Abs-Feuchte:Windchill:Wind:
Aussen-T/F 51 24-03-2011 10:11:03 6.8 C 6.96 g/m*3 6.8 C 0 km/h
52 24-03-2011 10:23:01 7.1 C 6.94 g/m*3 7.1 C 0 km/h
53 24-03-2011 10:35:02 7.8 C 6.86 g/m*3 7.8 C 0 km/h
54 24-03-2011 10:47:01 8.8 C 6.35 g/m*3 8.8 C 0 km/h
55 24-03-2011 10:59:01 9.8 C 6.03 g/m*3 9.8 C 0 km/h
56 24-03-2011 11:11:01 10 C 5.83 g/m*3 10 C 0 km/h
57 24-03-2011 11:23:02 11 C 5.1 g/m*3 11 C 0 km/h
58 24-03-2011 11:35:01 12.1 C 4.83 g/m*3 12.1 C 0 km/h
59 24-03-2011 11:47:01 13.3 C 4.85 g/m*3 13.3 C 0 km/h
60 24-03-2011 11:59:01 14.1 C 4.61 g/m*3 14.1 C 0 km/h
61 24-03-2011 12:11:01 15.2 C 4.28 g/m*3 15.2 C 0 km/h
62 24-03-2011 12:23:02 16.4 C 3.91 g/m*3 16.4 C 0 km/h
63 24-03-2011 12:35:01 16.3 C 3.75 g/m*3 16.3 C 0 km/h
64 24-03-2011 12:47:01 18.3 C 4.07 g/m*3 18.3 C 0 km/h
65 24-03-2011 12:59:01 20.6 C 3.76 g/m*3 20.6 C 0 km/h
66 24-03-2011 13:11:02 18.8 C 3.38 g/m*3 18.8 C 0 km/h
67 24-03-2011 13:23:01 18.8 C 3.38 g/m*3 18.8 C 0 km/h
68 24-03-2011 13:35:02 18.3 C 3.28 g/m*3 18.3 C 0 km/h
69 24-03-2011 13:47:02 18.3 C 3.13 g/m*3 18.3 C 0 km/h
70 24-03-2011 13:59:02 19.7 C 3.4 g/m*3 19.7 C 0 km/h
71 24-03-2011 14:11:01 18.3 C 3.13 g/m*3 18.3 C 0 km/h
72 24-03-2011 14:23:02 19.5 C 3.36 g/m*3 19.5 C 0 km/h
73 24-03-2011 14:35:01 21.6 C 3.79 g/m*3 21.6 C 0 km/h
74 24-03-2011 14:47:02 22.9 C 4.09 g/m*3 22.9 C 0 km/h
75 24-03-2011 14:59:02 24 C 4.35 g/m*3 24 C 0 km/h
Sensor: Nr:Datum:Temp:Abs-Feuchte:Windchill:Wind:
Aussen-T/F 76 24-03-2011 15:11:01 24.8 C 4.55 g/m*3 24.8 C 0 km/h
77 24-03-2011 15:23:01 24.1 C 4.38 g/m*3 24.1 C 0 km/h
78 24-03-2011 15:35:01 23.9 C 4.33 g/m*3 23.9 C 0 km/h
79 24-03-2011 15:47:02 25.3 C 4.68 g/m*3 25.3 C 0 km/h
80 24-03-2011 15:59:02 24.6 C 4.5 g/m*3 24.6 C 0 km/h
81 24-03-2011 16:11:01 24 C 4.35 g/m*3 24 C 0 km/h
82 24-03-2011 16:23:01 21.9 C 3.86 g/m*3 21.9 C 0 km/h
83 24-03-2011 16:35:02 23.9 C 4.33 g/m*3 23.9 C 0 km/h
84 24-03-2011 16:47:01 23.1 C 4.13 g/m*3 23.1 C 0 km/h
85 24-03-2011 16:59:02 20.2 C 3.5 g/m*3 20.2 C 0 km/h
86 24-03-2011 17:11:01 21.9 C 3.86 g/m*3 21.9 C 0 km/h
87 24-03-2011 17:23:01 21.9 C 3.86 g/m*3 21.9 C 0 km/h
88 24-03-2011 17:35:02 20.7 C 3.6 g/m*3 20.7 C 0 km/h
89 24-03-2011 17:47:01 19.2 C 3.3 g/m*3 19.2 C 0 km/h
90 24-03-2011 17:59:01 16.9 C 3.6 g/m*3 16.9 C 0 km/h
91 24-03-2011 18:11:02 16.4 C 3.63 g/m*3 16.4 C 0 km/h
92 24-03-2011 18:23:01 15.6 C 3.32 g/m*3 15.6 C 0 km/h
93 24-03-2011 18:35:02 13.5 C 3.51 g/m*3 13.5 C 0 km/h
94 24-03-2011 18:47:01 12.2 C 3.67 g/m*3 12.2 C 0 km/h
95 24-03-2011 18:59:01 11.5 C 3.93 g/m*3 11.5 C 0 km/h
96 24-03-2011 19:11:01 10.5 C 4.07 g/m*3 10.5 C 0 km/h
97 24-03-2011 19:23:01 10.1 C 4.16 g/m*3 10.1 C 0 km/h
98 24-03-2011 19:35:02 10 C 3.95 g/m*3 10 C 0 km/h
99 24-03-2011 19:47:01 9.7 C 4.24 g/m*3 9.7 C 0 km/h
100 24-03-2011 19:59:01 8.9 C 4.29 g/m*3 8.9 C 0 km/h
Sensor: Nr:Datum:Temp:Abs-Feuchte:Windchill:Wind:
Aussen-T/F 101 24-03-2011 20:11:02 8.9 C 4.56 g/m*3 8.9 C 0 km/h
102 24-03-2011 20:23:01 8.5 C 4.44 g/m*3 8.5 C 0 km/h
103 24-03-2011 20:35:02 7.7 C 4.38 g/m*3 7.7 C 0 km/h
104 24-03-2011 20:47:02 7.5 C 4.48 g/m*3 7.5 C 0 km/h
105 24-03-2011 20:59:02 7.4 C 4.29 g/m*3 7.4 C 0 km/h
106 24-03-2011 21:11:01 6.9 C 4.31 g/m*3 6.9 C 0 km/h
107 24-03-2011 21:23:01 6.5 C 4.05 g/m*3 6.5 C 0 km/h
108 24-03-2011 21:35:01 6.2 C 3.9 g/m*3 6.2 C 0 km/h
109 24-03-2011 21:47:02 5.6 C 3.89 g/m*3 5.6 C 0 km/h
110 24-03-2011 21:59:02 5.2 C 3.92 g/m*3 5.2 C 0 km/h
111 24-03-2011 22:11:01 5.6 C 4.17 g/m*3 5.6 C 0 km/h
112 24-03-2011 22:23:02 4.7 C 3.93 g/m*3 4.7 C 0 km/h
113 24-03-2011 22:35:01 4.6 C 3.9 g/m*3 4.6 C 0 km/h
114 24-03-2011 22:47:02 4.3 C 3.89 g/m*3 4.3 C 0 km/h
115 24-03-2011 22:59:02 4.4 C 4.11 g/m*3 4.4 C 0 km/h
116 24-03-2011 23:11:01 4.4 C 4.05 g/m*3 4.4 C 0 km/h
117 24-03-2011 23:23:01 4.1 C 3.97 g/m*3 4.1 C 0 km/h
118 24-03-2011 23:35:01 4.2 C 3.93 g/m*3 4.2 C 0 km/h
119 24-03-2011 23:47:02 4.1 C 3.9 g/m*3 4.1 C 0 km/h
120 24-03-2011 23:59:02 3.9 C 3.92 g/m*3 3.9 C 0 km/h
121 25-03-2011 00:11:01 3.5 C 3.87 g/m*3 3.5 C 0 km/h
122 25-03-2011 00:23:01 3.7 C 4.18 g/m*3 3.7 C 0 km/h
123 25-03-2011 00:35:02 3.3 C 4 g/m*3 3.3 C 0 km/h
124 25-03-2011 00:47:01 3.3 C 4 g/m*3 3.3 C 0 km/h
125 25-03-2011 00:59:02 2.8 C 3.87 g/m*3 2.8 C 0 km/h
Sensor: Nr:Datum:Temp:Abs-Feuchte:Windchill:Wind:
Aussen-T/F 126 25-03-2011 01:11:01 2.5 C 3.97 g/m*3 2.5 C 0 km/h
127 25-03-2011 01:23:01 2.1 C 3.97 g/m*3 2.1 C 0 km/h
128 25-03-2011 01:35:02 1.8 C 3.95 g/m*3 1.8 C 0 km/h
129 25-03-2011 01:47:01 1.6 C 4 g/m*3 1.6 C 0 km/h
130 25-03-2011 01:59:01 1.6 C 4 g/m*3 1.6 C 0 km/h
131 25-03-2011 02:11:02 2.1 C 4.2 g/m*3 2.1 C 0 km/h
132 25-03-2011 02:23:01 2 C 4.11 g/m*3 2 C 0 km/h
133 25-03-2011 02:35:02 2.4 C 4.11 g/m*3 2.4 C 0 km/h
134 25-03-2011 02:47:01 2.2 C 4.17 g/m*3 2.2 C 0 km/h
135 25-03-2011 02:59:01 1.4 C 4 g/m*3 1.4 C 0 km/h
136 25-03-2011 03:11:02 1.1 C 3.97 g/m*3 1.1 C 0 km/h
137 25-03-2011 03:23:02 0.9 C 4.02 g/m*3 0.9 C 0 km/h
138 25-03-2011 03:35:01 1 C 4.05 g/m*3 1 C 0 km/h
139 25-03-2011 03:47:01 1.1 C 4.13 g/m*3 1.1 C 0 km/h
140 25-03-2011 03:59:02 1.1 C 4.18 g/m*3 1.1 C 0 km/h
141 25-03-2011 04:11:01 1.1 C 4.18 g/m*3 1.1 C 0 km/h
142 25-03-2011 04:23:01 1 C 4.15 g/m*3 1 C 0 km/h
143 25-03-2011 04:35:02 0.7 C 4.12 g/m*3 0.7 C 0 km/h
144 25-03-2011 04:47:01 0.4 C 4.08 g/m*3 0.4 C 0 km/h
145 25-03-2011 04:59:01 0.3 C 4.06 g/m*3 0.3 C 0 km/h
146 25-03-2011 05:11:02 0.3 C 4.06 g/m*3 0.3 C 0 km/h
147 25-03-2011 05:23:01 0 C 3.97 g/m*3 0 C 0 km/h
148 25-03-2011 05:35:02 0 C 4.02 g/m*3 0 C 0 km/h
149 25-03-2011 05:47:01 0.1 C 4.1 g/m*3 0.1 C 0 km/h
150 25-03-2011 05:59:01 0 C 4.07 g/m*3 0 C 0 km/h
Sensor: Nr:Datum:Temp:Abs-Feuchte:Windchill:Wind:
Aussen-T/F 151 25-03-2011 06:11:02 -0.1 C 4.04 g/m*3 -0.1 C 0 km/h
152 25-03-2011 06:23:01 -0.1 C 4.09 g/m*3 -0.1 C 0 km/h
153 25-03-2011 06:35:01 0.3 C 4.25 g/m*3 0.3 C 0 km/h
154 25-03-2011 06:47:01 0.1 C 4.2 g/m*3 0.1 C 0 km/h
155 25-03-2011 06:59:01 0.4 C 4.28 g/m*3 0.4 C 0 km/h
156 25-03-2011 07:11:02 0.4 C 4.28 g/m*3 0.4 C 0 km/h
157 25-03-2011 07:23:01 0.6 C 4.34 g/m*3 0.6 C 0 km/h
158 25-03-2011 07:35:01 1.1 C 4.44 g/m*3 1.1 C 0 km/h
159 25-03-2011 07:47:01 1.3 C 4.5 g/m*3 1.3 C 0 km/h
160 25-03-2011 07:59:01 1.6 C 4.54 g/m*3 1.6 C 0 km/h
161 25-03-2011 08:11:01 2.1 C 4.64 g/m*3 2.1 C 0 km/h
162 25-03-2011 08:23:01 3 C 4.88 g/m*3 3 C 0 km/h
163 25-03-2011 08:35:01 3.8 C 4.77 g/m*3 3.8 C 0 km/h
164 25-03-2011 08:47:01 4.3 C 4.41 g/m*3 4.3 C 0 km/h
165 25-03-2011 08:59:01 4.7 C 4.33 g/m*3 4.7 C 0 km/h
166 25-03-2011 09:11:01 5.4 C 4.33 g/m*3 5.4 C 0 km/h
167 25-03-2011 09:23:02 6.2 C 4.41 g/m*3 6.2 C 0 km/h
168 25-03-2011 09:35:01 6.5 C 4.35 g/m*3 6.5 C 0 km/h
169 25-03-2011 09:47:02 7.3 C 4.35 g/m*3 7.3 C 0 km/h
170 25-03-2011 09:59:02 7.8 C 4.33 g/m*3 7.8 C 0 km/h
171 25-03-2011 10:11:01 8.6 C 4.21 g/m*3 8.6 C 0 km/h
172 25-03-2011 10:23:02 9.2 C 4.11 g/m*3 9.2 C 0 km/h
173 25-03-2011 10:35:01 10 C 4.23 g/m*3 10 C 0 km/h
174 25-03-2011 10:47:02 10.7 C 4.13 g/m*3 10.7 C 0 km/h
175 25-03-2011 10:59:02 11.6 C 4.16 g/m*3 11.6 C 0 km/h
Sensor: Nr:Datum:Temp:Abs-Feuchte:Windchill:Wind:
Aussen-T/F 176 25-03-2011 11:11:01 12.1 C 4.29 g/m*3 12.1 C 0 km/h
177 25-03-2011 11:23:02 12.7 C 4.12 g/m*3 12.7 C 0 km/h
178 25-03-2011 11:35:01 13.2 C 4.13 g/m*3 13.2 C 0 km/h
179 25-03-2011 11:47:02 13.9 C 4.2 g/m*3 13.9 C 0 km/h
180 25-03-2011 11:59:02 14.8 C 4.31 g/m*3 14.8 C 0 km/h
181 25-03-2011 12:11:01 16 C 4.22 g/m*3 16 C 0 km/h
182 25-03-2011 12:23:01 17 C 3.91 g/m*3 17 C 0 km/h
183 25-03-2011 12:35:01 17.7 C 3.77 g/m*3 17.7 C 0 km/h
184 25-03-2011 12:47:02 18.9 C 3.73 g/m*3 18.9 C 0 km/h
185 25-03-2011 12:59:02 20.5 C 3.74 g/m*3 20.5 C 0 km/h
186 25-03-2011 13:11:01 19.7 C 3.91 g/m*3 19.7 C 0 km/h
187 25-03-2011 13:23:01 19.7 C 4.25 g/m*3 19.7 C 0 km/h
188 25-03-2011 13:35:02 19.4 C 4.17 g/m*3 19.4 C 0 km/h
189 25-03-2011 13:47:01 20.7 C 4.14 g/m*3 20.7 C 0 km/h
190 25-03-2011 13:59:01 20.7 C 4.32 g/m*3 20.7 C 0 km/h
191 25-03-2011 14:11:02 20.5 C 4.09 g/m*3 20.5 C 0 km/h
192 25-03-2011 14:23:01 20.6 C 4.3 g/m*3 20.6 C 0 km/h
193 25-03-2011 14:35:02 23.6 C 4.25 g/m*3 23.6 C 0 km/h
194 25-03-2011 14:47:01 24.5 C 4.48 g/m*3 24.5 C 0 km/h
195 25-03-2011 14:59:01 25.3 C 4.68 g/m*3 25.3 C 0 km/h
196 25-03-2011 15:11:02 24.5 C 4.48 g/m*3 24.5 C 0 km/h
197 25-03-2011 15:23:01 24.8 C 4.55 g/m*3 24.8 C 0 km/h
198 25-03-2011 15:35:02 24.8 C 4.55 g/m*3 24.8 C 0 km/h
199 25-03-2011 15:47:01 24.9 C 4.58 g/m*3 24.9 C 0 km/h
200 25-03-2011 15:59:02 23.6 C 4.25 g/m*3 23.6 C 0 km/h
Sensor: Nr:Datum:Temp:Abs-Feuchte:Windchill:Wind:
Aussen-T/F 201 25-03-2011 16:11:01 23.4 C 4.21 g/m*3 23.4 C 0 km/h
202 25-03-2011 16:23:01 23.8 C 4.3 g/m*3 23.8 C 0 km/h
203 25-03-2011 16:35:02 21.7 C 4.01 g/m*3 21.7 C 0 km/h
204 25-03-2011 16:47:01 21.7 C 4.2 g/m*3 21.7 C 0 km/h
205 25-03-2011 16:59:01 19.5 C 4.53 g/m*3 19.5 C 0 km/h
206 25-03-2011 17:11:02 19.5 C 4.87 g/m*3 19.5 C 0 km/h
207 25-03-2011 17:23:01 19.3 C 4.81 g/m*3 19.3 C 0 km/h
208 25-03-2011 17:35:02 19.1 C 4.92 g/m*3 19.1 C 0 km/h
209 25-03-2011 17:47:01 18.5 C 4.9 g/m*3 18.5 C 0 km/h
210 25-03-2011 17:59:01 18.3 C 5 g/m*3 18.3 C 0 km/h
211 25-03-2011 18:11:01 17.2 C 5.13 g/m*3 17.2 C 0 km/h
212 25-03-2011 18:23:01 16.2 C 5.1 g/m*3 16.2 C 0 km/h
213 25-03-2011 18:35:02 14.9 C 5.48 g/m*3 14.9 C 0 km/h
214 25-03-2011 18:47:01 13.4 C 5.35 g/m*3 13.4 C 0 km/h
215 25-03-2011 18:59:01 12.2 C 5.5 g/m*3 12.2 C 0 km/h
216 25-03-2011 19:11:02 12 C 5.54 g/m*3 12 C 0 km/h
217 25-03-2011 19:23:01 11.5 C 5.58 g/m*3 11.5 C 0 km/h
218 25-03-2011 19:35:02 11.4 C 5.65 g/m*3 11.4 C 0 km/h
219 25-03-2011 19:47:01 11.5 C 5.58 g/m*3 11.5 C 0 km/h
220 25-03-2011 19:59:01 11.1 C 5.64 g/m*3 11.1 C 0 km/h
221 25-03-2011 20:11:02 10.6 C 5.76 g/m*3 10.6 C 0 km/h
222 25-03-2011 20:23:01 10.4 C 5.88 g/m*3 10.4 C 0 km/h
223 25-03-2011 20:35:02 9.9 C 5.88 g/m*3 9.9 C 0 km/h
224 25-03-2011 20:47:01 9.9 C 5.88 g/m*3 9.9 C 0 km/h
225 25-03-2011 20:59:01 9.5 C 5.83 g/m*3 9.5 C 0 km/h
Sensor: Nr:Datum:Temp:Abs-Feuchte:Windchill:Wind:
Aussen-T/F 226 25-03-2011 21:11:02 9.2 C 5.8 g/m*3 9.2 C 0 km/h
227 25-03-2011 21:23:01 9 C 5.82 g/m*3 9 C 0 km/h
228 25-03-2011 21:35:02 9 C 5.64 g/m*3 9 C 0 km/h
229 25-03-2011 21:47:01 9.2 C 5.71 g/m*3 9.2 C 0 km/h
230 25-03-2011 21:59:01 9 C 5.64 g/m*3 9 C 0 km/h
231 25-03-2011 22:11:01 8.8 C 5.83 g/m*3 8.8 C 0 km/h
232 25-03-2011 22:23:02 8.5 C 5.72 g/m*3 8.5 C 0 km/h
233 25-03-2011 22:37:09 8.5 C 5.81 g/m*3 8.5 C 0 km/h
234 25-03-2011 22:49:09 8.4 C 5.77 g/m*3 8.4 C 0 km/h
235 25-03-2011 23:01:09 8.2 C 5.78 g/m*3 8.2 C 0 km/h
236 25-03-2011 23:13:09 7.7 C 5.76 g/m*3 7.7 C 0 km/h
237 25-03-2011 23:25:09 7.3 C 5.69 g/m*3 7.3 C 0 km/h
238 25-03-2011 23:37:09 7.1 C 5.77 g/m*3 7.1 C 0 km/h
239 25-03-2011 23:49:09 6.6 C 5.74 g/m*3 6.6 C 0 km/h
240 26-03-2011 00:01:09 6.6 C 5.81 g/m*3 6.6 C 0 km/h
241 26-03-2011 00:13:09 5.7 C 5.48 g/m*3 5.7 C 0 km/h
242 26-03-2011 00:25:09 5.3 C 5.48 g/m*3 5.3 C 0 km/h
243 26-03-2011 00:37:09 5.2 C 5.58 g/m*3 5.2 C 0 km/h
244 26-03-2011 00:49:10 5 C 5.57 g/m*3 5 C 0 km/h
245 26-03-2011 01:01:10 4.6 C 5.56 g/m*3 4.6 C 0 km/h
246 26-03-2011 01:13:10 4.8 C 5.7 g/m*3 4.8 C 0 km/h
247 26-03-2011 01:25:10 5.7 C 6.05 g/m*3 5.7 C 0 km/h
248 26-03-2011 01:37:10 5.7 C 5.98 g/m*3 5.7 C 0 km/h
249 26-03-2011 01:49:10 5.4 C 5.72 g/m*3 5.4 C 0 km/h
250 26-03-2011 02:01:10 4.7 C 5.53 g/m*3 4.7 C 0 km/h
Sensor: Nr:Datum:Temp:Abs-Feuchte:Windchill:Wind:
Aussen-T/F 251 26-03-2011 02:13:10 4.7 C 5.6 g/m*3 4.7 C 0 km/h
252 26-03-2011 02:25:10 4.8 C 5.7 g/m*3 4.8 C 0 km/h
253 26-03-2011 02:37:10 4.6 C 5.62 g/m*3 4.6 C 0 km/h
254 26-03-2011 02:49:10 4.3 C 5.51 g/m*3 4.3 C 0 km/h
255 26-03-2011 03:01:10 3.9 C 5.43 g/m*3 3.9 C 0 km/h
256 26-03-2011 03:13:10 4.1 C 5.5 g/m*3 4.1 C 0 km/h
257 26-03-2011 03:25:10 3.3 C 5.28 g/m*3 3.3 C 0 km/h
258 26-03-2011 03:37:10 3.6 C 5.45 g/m*3 3.6 C 0 km/h
259 26-03-2011 03:49:10 4.8 C 5.97 g/m*3 4.8 C 0 km/h
260 26-03-2011 04:01:10 4.5 C 5.78 g/m*3 4.5 C 0 km/h
261 26-03-2011 04:13:10 3.9 C 5.56 g/m*3 3.9 C 0 km/h
262 26-03-2011 04:25:10 4.2 C 5.67 g/m*3 4.2 C 0 km/h
263 26-03-2011 04:37:10 4.5 C 5.78 g/m*3 4.5 C 0 km/h
264 26-03-2011 04:49:11 5.1 C 5.95 g/m*3 5.1 C 0 km/h
265 26-03-2011 05:01:11 4.9 C 5.74 g/m*3 4.9 C 0 km/h
266 26-03-2011 05:13:11 5 C 5.64 g/m*3 5 C 0 km/h
267 26-03-2011 05:25:11 4.8 C 5.57 g/m*3 4.8 C 0 km/h
268 26-03-2011 05:37:11 4.8 C 5.57 g/m*3 4.8 C 0 km/h
269 26-03-2011 05:49:11 4.8 C 5.5 g/m*3 4.8 C 0 km/h
270 26-03-2011 06:01:11 4.8 C 5.5 g/m*3 4.8 C 0 km/h
271 26-03-2011 06:13:11 4.8 C 5.5 g/m*3 4.8 C 0 km/h
272 26-03-2011 06:25:11 4.8 C 5.5 g/m*3 4.8 C 0 km/h
273 26-03-2011 06:37:11 4.8 C 5.5 g/m*3 4.8 C 0 km/h
274 26-03-2011 06:49:11 5.1 C 5.54 g/m*3 5.1 C 0 km/h
275 26-03-2011 07:01:11 5.3 C 5.54 g/m*3 5.3 C 0 km/h
Sensor: Nr:Datum:Temp:Abs-Feuchte:Windchill:Wind:
Aussen-T/F 276 26-03-2011 07:13:11 5.5 C 5.55 g/m*3 5.5 C 0 km/h
277 26-03-2011 07:25:11 5.6 C 5.51 g/m*3 5.6 C 0 km/h
278 26-03-2011 07:37:11 5.8 C 5.59 g/m*3 5.8 C 0 km/h
279 26-03-2011 07:49:03 6 C 5.52 g/m*3 6 C 0 km/h
280 26-03-2011 08:01:02 5.7 C 5.48 g/m*3 5.7 C 0 km/h
281 26-03-2011 08:13:02 5.7 C 5.55 g/m*3 5.7 C 0 km/h
282 26-03-2011 08:25:03 6 C 5.59 g/m*3 6 C 0 km/h
283 26-03-2011 08:37:02 6.4 C 5.74 g/m*3 6.4 C 0 km/h
284 26-03-2011 08:49:02 7.8 C 5.96 g/m*3 7.8 C 0 km/h
285 26-03-2011 09:01:02 8.8 C 5.74 g/m*3 8.8 C 0 km/h
286 26-03-2011 09:13:02 9.1 C 5.41 g/m*3 9.1 C 0 km/h
287 26-03-2011 09:25:02 8.5 C 5.29 g/m*3 8.5 C 0 km/h
288 26-03-2011 09:37:02 9.3 C 5.12 g/m*3 9.3 C 0 km/h
289 26-03-2011 09:49:02 8.7 C 5.02 g/m*3 8.7 C 0 km/h
290 26-03-2011 10:01:02 9.2 C 4.91 g/m*3 9.2 C 0 km/h
291 26-03-2011 10:13:02 9 C 4.76 g/m*3 9 C 0 km/h
292 26-03-2011 10:25:02 9.2 C 4.64 g/m*3 9.2 C 0 km/h
293 26-03-2011 10:37:02 9.1 C 4.44 g/m*3 9.1 C 0 km/h
294 26-03-2011 10:49:02 9.3 C 4.22 g/m*3 9.3 C 0 km/h
295 26-03-2011 11:01:03 10 C 4.23 g/m*3 10 C 0 km/h
296 26-03-2011 11:13:03 10.1 C 3.88 g/m*3 10.1 C 0 km/h
297 26-03-2011 11:25:02 9.9 C 3.83 g/m*3 9.9 C 0 km/h
298 26-03-2011 11:37:02 11.1 C 3.83 g/m*3 11.1 C 0 km/h
299 26-03-2011 11:49:02 11.7 C 3.77 g/m*3 11.7 C 0 km/h
300 26-03-2011 12:01:02 11.8 C 3.68 g/m*3 11.8 C 0 km/h
Sensor: Nr:Datum:Temp:Abs-Feuchte:Windchill:Wind:
Aussen-T/F 301 26-03-2011 12:13:02 12.4 C 3.5 g/m*3 12.4 C 0 km/h
302 26-03-2011 12:25:01 11.9 C 3.39 g/m*3 11.9 C 0 km/h
303 26-03-2011 12:37:02 12 C 3.2 g/m*3 12 C 0 km/h
304 26-03-2011 12:49:02 14.7 C 3.27 g/m*3 14.7 C 0 km/h
305 26-03-2011 13:01:02 13.4 C 2.91 g/m*3 13.4 C 0 km/h
306 26-03-2011 13:13:02 13.3 C 3.23 g/m*3 13.3 C 0 km/h
307 26-03-2011 13:25:02 13.4 C 3.49 g/m*3 13.4 C 0 km/h
308 26-03-2011 13:37:02 13.4 C 3.25 g/m*3 13.4 C 0 km/h
309 26-03-2011 13:49:02 13.2 C 3.33 g/m*3 13.2 C 0 km/h
310 26-03-2011 14:01:02 13 C 3.4 g/m*3 13 C 0 km/h
311 26-03-2011 14:13:02 13.2 C 3.21 g/m*3 13.2 C 0 km/h
312 26-03-2011 14:25:02 14.2 C 3.17 g/m*3 14.2 C 0 km/h
313 26-03-2011 14:37:02 15.9 C 2.71 g/m*3 15.9 C 0 km/h
314 26-03-2011 14:49:01 16.6 C 2.83 g/m*3 16.6 C 0 km/h
315 26-03-2011 15:01:02 14.7 C 2.77 g/m*3 14.7 C 0 km/h
316 26-03-2011 15:13:02 15.1 C 2.71 g/m*3 15.1 C 0 km/h
317 26-03-2011 15:25:01 16.5 C 2.81 g/m*3 16.5 C 0 km/h
318 26-03-2011 15:37:01 15.7 C 3.21 g/m*3 15.7 C 0 km/h
319 26-03-2011 15:49:01 14.6 C 3.25 g/m*3 14.6 C 0 km/h
320 26-03-2011 16:01:02 13.3 C 3.23 g/m*3 13.3 C 0 km/h
321 26-03-2011 16:13:02 13 C 3.4 g/m*3 13 C 0 km/h
322 26-03-2011 16:25:01 12.7 C 3.45 g/m*3 12.7 C 0 km/h
323 26-03-2011 16:37:02 12.3 C 3.47 g/m*3 12.3 C 0 km/h
324 26-03-2011 16:49:01 12 C 3.73 g/m*3 12 C 0 km/h
325 26-03-2011 17:01:02 11.6 C 3.74 g/m*3 11.6 C 0 km/h
Sensor: Nr:Datum:Temp:Abs-Feuchte:Windchill:Wind:
Aussen-T/F 326 26-03-2011 17:13:02 11.5 C 3.93 g/m*3 11.5 C 0 km/h
327 26-03-2011 17:25:01 11.1 C 3.83 g/m*3 11.1 C 0 km/h
328 26-03-2011 17:37:02 10.8 C 3.95 g/m*3 10.8 C 0 km/h
329 26-03-2011 17:49:01 10.5 C 3.88 g/m*3 10.5 C 0 km/h
330 26-03-2011 18:01:02 10.3 C 3.93 g/m*3 10.3 C 0 km/h
331 26-03-2011 18:13:02 10 C 4.04 g/m*3 10 C 0 km/h
332 26-03-2011 18:25:02 9.5 C 4.01 g/m*3 9.5 C 0 km/h
333 26-03-2011 18:37:01 8.9 C 4.29 g/m*3 8.9 C 0 km/h
334 26-03-2011 18:49:01 8.3 C 4.3 g/m*3 8.3 C 0 km/h
335 26-03-2011 19:01:02 8 C 4.38 g/m*3 8 C 0 km/h
336 26-03-2011 19:13:02 8.1 C 4.41 g/m*3 8.1 C 0 km/h
337 26-03-2011 19:25:02 8.2 C 4.44 g/m*3 8.2 C 0 km/h
338 26-03-2011 19:37:01 7.8 C 4.49 g/m*3 7.8 C 0 km/h
339 26-03-2011 19:49:02 7.9 C 4.52 g/m*3 7.9 C 0 km/h
340 26-03-2011 20:01:01 7.2 C 4.47 g/m*3 7.2 C 0 km/h
341 26-03-2011 20:13:01 6.7 C 4.48 g/m*3 6.7 C 0 km/h
342 26-03-2011 20:25:02 6.7 C 4.56 g/m*3 6.7 C 0 km/h
343 26-03-2011 20:37:01 6.6 C 4.53 g/m*3 6.6 C 0 km/h
344 26-03-2011 20:49:02 6.5 C 4.65 g/m*3 6.5 C 0 km/h
345 26-03-2011 21:01:02 6.5 C 4.65 g/m*3 6.5 C 0 km/h
346 26-03-2011 21:13:02 6.3 C 4.66 g/m*3 6.3 C 0 km/h
347 26-03-2011 21:25:02 6.2 C 4.78 g/m*3 6.2 C 0 km/h
348 26-03-2011 21:37:02 5.9 C 4.76 g/m*3 5.9 C 0 km/h
349 26-03-2011 21:49:02 5.7 C 4.77 g/m*3 5.7 C 0 km/h
350 26-03-2011 22:01:02 5.7 C 4.77 g/m*3 5.7 C 0 km/h
Sensor: Nr:Datum:Temp:Abs-Feuchte:Windchill:Wind:
Aussen-T/F 351 26-03-2011 22:13:02 5.7 C 4.84 g/m*3 5.7 C 0 km/h
352 26-03-2011 22:26:02 5.4 C 4.74 g/m*3 5.4 C 0 km/h
353 26-03-2011 22:38:02 5.6 C 4.88 g/m*3 5.6 C 0 km/h
354 26-03-2011 22:50:02 5.8 C 4.94 g/m*3 5.8 C 0 km/h
355 26-03-2011 23:02:03 5.6 C 4.88 g/m*3 5.6 C 0 km/h
356 26-03-2011 23:14:03 5.5 C 4.92 g/m*3 5.5 C 0 km/h
357 26-03-2011 23:26:03 5.4 C 4.81 g/m*3 5.4 C 0 km/h
358 26-03-2011 23:38:03 5.1 C 4.79 g/m*3 5.1 C 0 km/h
359 26-03-2011 23:50:03 5 C 4.82 g/m*3 5 C 0 km/h
360 27-03-2011 00:02:03 5 C 4.89 g/m*3 5 C 0 km/h
361 27-03-2011 00:14:03 5.1 C 4.92 g/m*3 5.1 C 0 km/h
362 27-03-2011 00:26:03 5.1 C 4.92 g/m*3 5.1 C 0 km/h
363 27-03-2011 00:38:03 5.1 C 4.92 g/m*3 5.1 C 0 km/h
364 27-03-2011 00:50:03 5 C 4.89 g/m*3 5 C 0 km/h
365 27-03-2011 01:02:03 4.8 C 4.9 g/m*3 4.8 C 0 km/h
366 27-03-2011 01:14:03 4.8 C 4.9 g/m*3 4.8 C 0 km/h
367 27-03-2011 01:26:03 4.8 C 4.96 g/m*3 4.8 C 0 km/h
368 27-03-2011 01:38:03 5.2 C 4.96 g/m*3 5.2 C 0 km/h
369 27-03-2011 01:50:03 5.3 C 4.99 g/m*3 5.3 C 0 km/h
370 27-03-2011 02:02:03 5.2 C 4.89 g/m*3 5.2 C 0 km/h
371 27-03-2011 02:14:03 4.6 C 4.76 g/m*3 4.6 C 0 km/h
372 27-03-2011 02:26:03 4.5 C 4.86 g/m*3 4.5 C 0 km/h
373 27-03-2011 02:38:03 4.7 C 4.93 g/m*3 4.7 C 0 km/h
374 27-03-2011 02:50:03 5.1 C 4.92 g/m*3 5.1 C 0 km/h
375 27-03-2011 04:02:03 5 C 4.82 g/m*3 5 C 0 km/h
Sensor: Nr:Datum:Temp:Abs-Feuchte:Windchill:Wind:
Aussen-T/F 376 27-03-2011 04:14:04 5 C 4.82 g/m*3 5 C 0 km/h
377 27-03-2011 04:26:04 5 C 4.82 g/m*3 5 C 0 km/h
378 27-03-2011 04:38:04 4.8 C 4.83 g/m*3 4.8 C 0 km/h
379 27-03-2011 04:50:04 4.6 C 4.76 g/m*3 4.6 C 0 km/h
380 27-03-2011 05:02:04 4.5 C 4.8 g/m*3 4.5 C 0 km/h
381 27-03-2011 05:14:04 4.7 C 4.86 g/m*3 4.7 C 0 km/h
382 27-03-2011 05:26:04 4.8 C 4.9 g/m*3 4.8 C 0 km/h
383 27-03-2011 05:38:04 4.8 C 4.9 g/m*3 4.8 C 0 km/h
384 27-03-2011 05:50:04 4.6 C 4.83 g/m*3 4.6 C 0 km/h
385 27-03-2011 06:02:04 4.4 C 4.7 g/m*3 4.4 C 0 km/h
386 27-03-2011 06:14:04 4.4 C 4.77 g/m*3 4.4 C 0 km/h
387 27-03-2011 06:26:04 4.4 C 4.77 g/m*3 4.4 C 0 km/h
388 27-03-2011 06:38:04 4.4 C 4.77 g/m*3 4.4 C 0 km/h
389 27-03-2011 06:50:04 4.4 C 4.77 g/m*3 4.4 C 0 km/h
390 27-03-2011 07:02:04 4.4 C 4.77 g/m*3 4.4 C 0 km/h
391 27-03-2011 07:14:04 4 C 4.64 g/m*3 4 C 0 km/h
392 27-03-2011 07:26:04 4.2 C 4.77 g/m*3 4.2 C 0 km/h
393 27-03-2011 07:38:04 4.6 C 4.83 g/m*3 4.6 C 0 km/h
394 27-03-2011 07:50:04 4.8 C 4.9 g/m*3 4.8 C 0 km/h
395 27-03-2011 08:02:04 5.1 C 4.86 g/m*3 5.1 C 0 km/h
396 27-03-2011 08:14:05 5.2 C 4.82 g/m*3 5.2 C 0 km/h
397 27-03-2011 08:26:05 5.5 C 4.85 g/m*3 5.5 C 0 km/h
398 27-03-2011 08:38:05 5.9 C 4.76 g/m*3 5.9 C 0 km/h
399 27-03-2011 08:50:02 6.1 C 4.6 g/m*3 6.1 C 0 km/h
400 27-03-2011 09:02:01 6.5 C 4.65 g/m*3 6.5 C 0 km/h
Sensor: Nr:Datum:Temp:Abs-Feuchte:Windchill:Wind:
Aussen-T/F 401 27-03-2011 09:14:01 6.9 C 4.7 g/m*3 6.9 C 0 km/h
402 27-03-2011 09:26:02 7.2 C 4.55 g/m*3 7.2 C 0 km/h
403 27-03-2011 09:38:02 7.3 C 4.58 g/m*3 7.3 C 0 km/h
404 27-03-2011 09:50:02 7.9 C 4.6 g/m*3 7.9 C 0 km/h
405 27-03-2011 10:02:03 8 C 4.55 g/m*3 8 C 0 km/h
406 27-03-2011 10:14:03 8.2 C 4.35 g/m*3 8.2 C 0 km/h
407 27-03-2011 10:26:03 8 C 4.46 g/m*3 8 C 0 km/h
408 27-03-2011 10:38:03 8.8 C 4.53 g/m*3 8.8 C 0 km/h
409 27-03-2011 10:50:01 8.7 C 4.5 g/m*3 8.7 C 0 km/h
410 27-03-2011 11:02:02 9.4 C 4.52 g/m*3 9.4 C 0 km/h
411 27-03-2011 11:14:02 10.1 C 4.44 g/m*3 10.1 C 0 km/h
412 27-03-2011 11:26:01 10.3 C 4.41 g/m*3 10.3 C 0 km/h
413 27-03-2011 11:38:01 10.3 C 4.41 g/m*3 10.3 C 0 km/h
414 27-03-2011 11:50:01 10 C 4.32 g/m*3 10 C 0 km/h
415 27-03-2011 12:02:02 10.9 C 4.48 g/m*3 10.9 C 0 km/h
416 27-03-2011 12:14:03 11.2 C 4.26 g/m*3 11.2 C 0 km/h
417 27-03-2011 12:26:01 11.7 C 4.5 g/m*3 11.7 C 0 km/h
418 27-03-2011 12:38:02 11.2 C 4.26 g/m*3 11.2 C 0 km/h
419 27-03-2011 12:50:01 11.6 C 4.47 g/m*3 11.6 C 0 km/h
420 27-03-2011 13:02:02 12.1 C 4.5 g/m*3 12.1 C 0 km/h
421 27-03-2011 13:14:02 12.6 C 4.54 g/m*3 12.6 C 0 km/h
422 27-03-2011 13:26:02 13.7 C 4.5 g/m*3 13.7 C 0 km/h
423 27-03-2011 13:38:02 14.6 C 4.63 g/m*3 14.6 C 0 km/h
424 27-03-2011 13:50:02 17.5 C 4.62 g/m*3 17.5 C 0 km/h
425 27-03-2011 14:02:02 16.2 C 4.14 g/m*3 16.2 C 0 km/h
Sensor: Nr:Datum:Temp:Abs-Feuchte:Windchill:Wind:
Aussen-T/F 426 27-03-2011 14:14:02 16 C 4.36 g/m*3 16 C 0 km/h
427 27-03-2011 14:26:02 15.4 C 4.07 g/m*3 15.4 C 0 km/h
428 27-03-2011 14:38:01 15.8 C 4.17 g/m*3 15.8 C 0 km/h
429 27-03-2011 14:50:02 15.9 C 4.06 g/m*3 15.9 C 0 km/h
430 27-03-2011 15:02:01 17.7 C 3.92 g/m*3 17.7 C 0 km/h
431 27-03-2011 15:14:01 17.8 C 3.95 g/m*3 17.8 C 0 km/h
432 27-03-2011 15:26:02 18.5 C 3.96 g/m*3 18.5 C 0 km/h
433 27-03-2011 15:38:01 20.3 C 3.52 g/m*3 20.3 C 0 km/h
434 27-03-2011 15:50:02 20 C 3.46 g/m*3 20 C 0 km/h
435 27-03-2011 16:02:02 20.4 C 3.54 g/m*3 20.4 C 0 km/h
436 27-03-2011 16:14:02 17.9 C 3.05 g/m*3 17.9 C 0 km/h
437 27-03-2011 16:26:02 20.4 C 3.54 g/m*3 20.4 C 0 km/h
438 27-03-2011 16:38:03 21.1 C 3.69 g/m*3 21.1 C 0 km/h
439 27-03-2011 16:50:02 20 C 3.46 g/m*3 20 C 0 km/h
440 27-03-2011 17:02:02 19.8 C 3.42 g/m*3 19.8 C 0 km/h
441 27-03-2011 17:14:02 19.7 C 3.4 g/m*3 19.7 C 0 km/h
442 27-03-2011 17:26:02 18.3 C 3.13 g/m*3 18.3 C 0 km/h
443 27-03-2011 17:38:02 16 C 3.68 g/m*3 16 C 0 km/h
444 27-03-2011 17:50:02 15.2 C 3.76 g/m*3 15.2 C 0 km/h
445 27-03-2011 18:02:02 14.8 C 4.05 g/m*3 14.8 C 0 km/h
446 27-03-2011 18:14:02 15.4 C 3.94 g/m*3 15.4 C 0 km/h
447 27-03-2011 18:26:02 15.2 C 4.02 g/m*3 15.2 C 0 km/h
448 27-03-2011 18:38:02 15.8 C 4.04 g/m*3 15.8 C 0 km/h
449 27-03-2011 18:50:01 16.1 C 3.84 g/m*3 16.1 C 0 km/h
450 27-03-2011 19:02:02 15.4 C 4.07 g/m*3 15.4 C 0 km/h
Sensor: Nr:Datum:Temp:Abs-Feuchte:Windchill:Wind:
Aussen-T/F 451 27-03-2011 19:14:02 12.7 C 4.79 g/m*3 12.7 C 0 km/h
452 27-03-2011 19:26:01 11.4 C 4.82 g/m*3 11.4 C 0 km/h
453 27-03-2011 19:38:02 11.3 C 4.79 g/m*3 11.3 C 0 km/h
454 27-03-2011 19:50:02 11 C 4.7 g/m*3 11 C 0 km/h
455 27-03-2011 20:02:02 10.2 C 4.76 g/m*3 10.2 C 0 km/h
456 27-03-2011 20:14:02 9.3 C 4.67 g/m*3 9.3 C 0 km/h
457 27-03-2011 20:26:01 8.9 C 4.82 g/m*3 8.9 C 0 km/h
458 27-03-2011 20:38:02 8.4 C 4.75 g/m*3 8.4 C 0 km/h
459 27-03-2011 20:50:02 8.5 C 5.04 g/m*3 8.5 C 0 km/h
460 27-03-2011 21:02:02 8.2 C 5.02 g/m*3 8.2 C 0 km/h
461 27-03-2011 21:14:03 7.7 C 4.87 g/m*3 7.7 C 0 km/h
462 27-03-2011 21:26:02 8.3 C 5.06 g/m*3 8.3 C 0 km/h
463 27-03-2011 21:38:02 7.5 C 4.88 g/m*3 7.5 C 0 km/h
464 27-03-2011 21:50:02 7.2 C 4.95 g/m*3 7.2 C 0 km/h
465 27-03-2011 22:03:04 7.6 C 5.16 g/m*3 7.6 C 0 km/h
466 27-03-2011 22:15:04 7.8 C 5.22 g/m*3 7.8 C 0 km/h
467 27-03-2011 22:27:04 7.8 C 4.98 g/m*3 7.8 C 0 km/h
468 27-03-2011 22:39:04 8 C 4.8 g/m*3 8 C 0 km/h
469 27-03-2011 22:51:04 7.5 C 4.8 g/m*3 7.5 C 0 km/h
470 27-03-2011 23:03:04 7 C 5.04 g/m*3 7 C 0 km/h
471 27-03-2011 23:15:04 7.3 C 5.14 g/m*3 7.3 C 0 km/h
472 27-03-2011 23:27:04 7 C 5.19 g/m*3 7 C 0 km/h
473 27-03-2011 23:39:04 6.1 C 4.97 g/m*3 6.1 C 0 km/h
474 27-03-2011 23:51:04 6.1 C 5.19 g/m*3 6.1 C 0 km/h
475 28-03-2011 00:03:04 6 C 5.15 g/m*3 6 C 0 km/h
Sensor: Nr:Datum:Temp:Abs-Feuchte:Windchill:Wind:
Aussen-T/F 476 28-03-2011 00:15:04 5.6 C 5.02 g/m*3 5.6 C 0 km/h
477 28-03-2011 00:27:04 5.4 C 5.16 g/m*3 5.4 C 0 km/h
478 28-03-2011 00:39:04 5.4 C 5.23 g/m*3 5.4 C 0 km/h
479 28-03-2011 00:51:05 4.9 C 5.06 g/m*3 4.9 C 0 km/h
480 28-03-2011 01:03:05 4.3 C 4.86 g/m*3 4.3 C 0 km/h
481 28-03-2011 01:15:05 4 C 4.9 g/m*3 4 C 0 km/h
482 28-03-2011 01:27:05 4 C 5.02 g/m*3 4 C 0 km/h
483 28-03-2011 01:39:05 4.2 C 5.22 g/m*3 4.2 C 0 km/h
484 28-03-2011 01:51:05 3.5 C 4.98 g/m*3 3.5 C 0 km/h
485 28-03-2011 02:03:05 3.2 C 4.94 g/m*3 3.2 C 0 km/h
486 28-03-2011 02:15:05 2.8 C 4.87 g/m*3 2.8 C 0 km/h
487 28-03-2011 02:27:05 2.9 C 4.96 g/m*3 2.9 C 0 km/h
488 28-03-2011 02:39:05 2.6 C 4.86 g/m*3 2.6 C 0 km/h
489 28-03-2011 02:51:05 2.5 C 4.83 g/m*3 2.5 C 0 km/h
490 28-03-2011 03:03:05 2.3 C 4.82 g/m*3 2.3 C 0 km/h
491 28-03-2011 03:15:05 2.3 C 4.82 g/m*3 2.3 C 0 km/h
492 28-03-2011 03:27:05 2.1 C 4.81 g/m*3 2.1 C 0 km/h
493 28-03-2011 03:39:05 2.1 C 4.81 g/m*3 2.1 C 0 km/h
494 28-03-2011 03:51:05 1.9 C 4.8 g/m*3 1.9 C 0 km/h
495 28-03-2011 04:03:05 2.8 C 5.16 g/m*3 2.8 C 0 km/h
496 28-03-2011 04:15:05 3 C 5.23 g/m*3 3 C 0 km/h
497 28-03-2011 04:27:05 2.8 C 5.16 g/m*3 2.8 C 0 km/h
498 28-03-2011 04:39:05 2.5 C 5 g/m*3 2.5 C 0 km/h
499 28-03-2011 04:51:05 2.3 C 4.93 g/m*3 2.3 C 0 km/h
500 28-03-2011 05:03:06 2.2 C 4.9 g/m*3 2.2 C 0 km/h
Sensor: Nr:Datum:Temp:Abs-Feuchte:Windchill:Wind:
Aussen-T/F 501 28-03-2011 05:15:06 2.2 C 4.96 g/m*3 2.2 C 0 km/h
502 28-03-2011 05:27:06 1.9 C 4.86 g/m*3 1.9 C 0 km/h
503 28-03-2011 05:39:06 1.6 C 4.81 g/m*3 1.6 C 0 km/h
504 28-03-2011 05:51:06 1.3 C 4.72 g/m*3 1.3 C 0 km/h
505 28-03-2011 06:03:06 1.3 C 4.72 g/m*3 1.3 C 0 km/h
506 28-03-2011 06:15:06 1.1 C 4.65 g/m*3 1.1 C 0 km/h
507 28-03-2011 06:27:06 1.3 C 4.72 g/m*3 1.3 C 0 km/h
508 28-03-2011 06:39:06 1.1 C 4.65 g/m*3 1.1 C 0 km/h
509 28-03-2011 06:51:06 0.9 C 4.64 g/m*3 0.9 C 0 km/h
510 28-03-2011 07:03:03 0.8 C 4.61 g/m*3 0.8 C 0 km/h
511 28-03-2011 07:15:03 0.9 C 4.64 g/m*3 0.9 C 0 km/h
512 28-03-2011 07:27:03 0.7 C 4.63 g/m*3 0.7 C 0 km/h
513 28-03-2011 07:39:04 0.4 C 4.53 g/m*3 0.4 C 0 km/h
514 28-03-2011 07:51:02 0.3 C 4.5 g/m*3 0.3 C 0 km/h
515 28-03-2011 08:03:02 0.5 C 4.56 g/m*3 0.5 C 0 km/h
516 28-03-2011 08:15:02 0.8 C 4.66 g/m*3 0.8 C 0 km/h
517 28-03-2011 08:27:02 1.3 C 4.82 g/m*3 1.3 C 0 km/h
518 28-03-2011 08:39:02 1.2 C 4.79 g/m*3 1.2 C 0 km/h
519 28-03-2011 08:51:02 1.9 C 5.02 g/m*3 1.9 C 0 km/h
520 28-03-2011 09:03:02 1.9 C 5.02 g/m*3 1.9 C 0 km/h
521 28-03-2011 09:15:02 2.2 C 5.07 g/m*3 2.2 C 0 km/h
522 28-03-2011 09:27:02 2.4 C 5.14 g/m*3 2.4 C 0 km/h
523 28-03-2011 09:39:02 2.6 C 5.21 g/m*3 2.6 C 0 km/h
524 28-03-2011 09:51:02 3 C 5.29 g/m*3 3 C 0 km/h
525 28-03-2011 10:03:02 3.2 C 5.36 g/m*3 3.2 C 0 km/h
Sensor: Nr:Datum:Temp:Abs-Feuchte:Windchill:Wind:
Aussen-T/F 526 28-03-2011 10:15:02 4 C 5.59 g/m*3 4 C 0 km/h
527 28-03-2011 10:27:02 4.2 C 5.61 g/m*3 4.2 C 0 km/h
528 28-03-2011 10:39:02 5.3 C 5.54 g/m*3 5.3 C 0 km/h
529 28-03-2011 10:51:02 6.6 C 5.21 g/m*3 6.6 C 0 km/h
530 28-03-2011 11:03:02 7.3 C 4.82 g/m*3 7.3 C 0 km/h
531 28-03-2011 11:15:02 7.9 C 4.52 g/m*3 7.9 C 0 km/h
532 28-03-2011 11:27:03 8.5 C 4.44 g/m*3 8.5 C 0 km/h
533 28-03-2011 11:39:01 9.3 C 3.86 g/m*3 9.3 C 0 km/h
534 28-03-2011 11:51:02 10 C 3.95 g/m*3 10 C 0 km/h
535 28-03-2011 12:03:01 10.4 C 3.76 g/m*3 10.4 C 0 km/h
536 28-03-2011 12:15:01 11 C 3.4 g/m*3 11 C 0 km/h
537 28-03-2011 12:27:01 11 C 3.3 g/m*3 11 C 0 km/h
538 28-03-2011 12:39:02 11.8 C 3.47 g/m*3 11.8 C 0 km/h
539 28-03-2011 12:51:02 12.2 C 3.24 g/m*3 12.2 C 0 km/h
540 28-03-2011 13:03:02 12.4 C 3.17 g/m*3 12.4 C 0 km/h
541 28-03-2011 13:15:02 13.2 C 3.33 g/m*3 13.2 C 0 km/h
542 28-03-2011 13:27:02 13.7 C 2.96 g/m*3 13.7 C 0 km/h
543 28-03-2011 13:39:02 14 C 3.02 g/m*3 14 C 0 km/h
544 28-03-2011 13:51:01 16.1 C 2.74 g/m*3 16.1 C 0 km/h
545 28-03-2011 14:03:02 14.6 C 2.5 g/m*3 14.6 C 0 km/h
546 28-03-2011 14:15:01 14.9 C 2.55 g/m*3 14.9 C 0 km/h
547 28-03-2011 14:27:01 14.3 C 2.46 g/m*3 14.3 C 0 km/h
548 28-03-2011 14:39:01 14.1 C 2.43 g/m*3 14.1 C 0 km/h
549 28-03-2011 14:51:01 15 C 2.56 g/m*3 15 C 0 km/h
550 28-03-2011 15:03:02 16 C 2.72 g/m*3 16 C 0 km/h
Sensor: Nr:Datum:Temp:Abs-Feuchte:Windchill:Wind:
Aussen-T/F 551 28-03-2011 15:15:01 16.2 C 2.76 g/m*3 16.2 C 0 km/h
552 28-03-2011 15:27:01 16.6 C 2.83 g/m*3 16.6 C 0 km/h
553 28-03-2011 15:39:01 20.1 C 3.48 g/m*3 20.1 C 0 km/h
554 28-03-2011 15:51:01 17.2 C 2.93 g/m*3 17.2 C 0 km/h
555 28-03-2011 16:03:01 18.9 C 3.24 g/m*3 18.9 C 0 km/h
556 28-03-2011 16:15:02 19.4 C 3.34 g/m*3 19.4 C 0 km/h
557 28-03-2011 16:27:02 19.7 C 3.4 g/m*3 19.7 C 0 km/h
558 28-03-2011 16:39:01 18.3 C 3.13 g/m*3 18.3 C 0 km/h
559 28-03-2011 16:51:02 18.4 C 3.15 g/m*3 18.4 C 0 km/h
560 28-03-2011 17:03:01 16.9 C 2.88 g/m*3 16.9 C 0 km/h
561 28-03-2011 17:15:01 18.4 C 3.15 g/m*3 18.4 C 0 km/h
562 28-03-2011 17:27:01 19.2 C 3.3 g/m*3 19.2 C 0 km/h
563 28-03-2011 17:39:01 18.5 C 3.16 g/m*3 18.5 C 0 km/h
564 28-03-2011 17:51:02 16.7 C 2.84 g/m*3 16.7 C 0 km/h
565 28-03-2011 18:03:02 16.7 C 2.84 g/m*3 16.7 C 0 km/h
566 28-03-2011 18:15:02 17.1 C 2.91 g/m*3 17.1 C 0 km/h
567 28-03-2011 18:27:02 16.4 C 2.79 g/m*3 16.4 C 0 km/h
568 28-03-2011 18:39:02 15.5 C 2.64 g/m*3 15.5 C 0 km/h
569 28-03-2011 18:51:02 14.9 C 2.55 g/m*3 14.9 C 0 km/h
570 28-03-2011 19:03:02 14.6 C 2.5 g/m*3 14.6 C 0 km/h
571 28-03-2011 19:15:01 13.5 C 2.46 g/m*3 13.5 C 0 km/h
572 28-03-2011 19:27:01 12.8 C 2.8 g/m*3 12.8 C 0 km/h
573 28-03-2011 19:39:02 11.2 C 3.04 g/m*3 11.2 C 0 km/h
574 28-03-2011 19:51:02 9.8 C 3.34 g/m*3 9.8 C 0 km/h
575 28-03-2011 20:03:02 9.6 C 3.3 g/m*3 9.6 C 0 km/h
Sensor: Nr:Datum:Temp:Abs-Feuchte:Windchill:Wind:
Aussen-T/F 576 28-03-2011 20:15:02 9 C 3.26 g/m*3 9 C 0 km/h
577 28-03-2011 20:27:02 9.6 C 3.21 g/m*3 9.6 C 0 km/h
578 28-03-2011 20:39:02 9.5 C 3.09 g/m*3 9.5 C 0 km/h
579 28-03-2011 20:51:02 9.2 C 3.21 g/m*3 9.2 C 0 km/h
580 28-03-2011 21:03:02 7.8 C 3.51 g/m*3 7.8 C 0 km/h
581 28-03-2011 21:15:02 7.1 C 3.67 g/m*3 7.1 C 0 km/h
582 28-03-2011 21:27:02 6.9 C 3.77 g/m*3 6.9 C 0 km/h
583 28-03-2011 21:39:02 6.5 C 3.67 g/m*3 6.5 C 0 km/h
584 28-03-2011 21:51:02 6.2 C 3.75 g/m*3 6.2 C 0 km/h
585 28-03-2011 22:03:02 5.6 C 3.68 g/m*3 5.6 C 0 km/h
586 28-03-2011 22:15:02 5.8 C 3.72 g/m*3 5.8 C 0 km/h
587 28-03-2011 22:27:02 6.2 C 3.75 g/m*3 6.2 C 0 km/h
588 28-03-2011 22:39:02 5.6 C 3.82 g/m*3 5.6 C 0 km/h
589 28-03-2011 22:51:02 5.3 C 4.02 g/m*3 5.3 C 0 km/h
590 28-03-2011 23:03:01 4.7 C 3.93 g/m*3 4.7 C 0 km/h
591 28-03-2011 23:15:02 4.4 C 4.05 g/m*3 4.4 C 0 km/h
592 28-03-2011 23:27:02 3.3 C 3.88 g/m*3 3.3 C 0 km/h
593 28-03-2011 23:39:02 2.9 C 4.02 g/m*3 2.9 C 0 km/h
594 28-03-2011 23:51:02 2.3 C 3.91 g/m*3 2.3 C 0 km/h

Legende:
   Min
   Max


Maximal/Minimal-Werte vom 23.02.2003 - 29.09.2020

Sensor Min Max Avg
Temp
(Aussen-T/F)
-16.4 °C
20-12-2009  01:30:01
40.4 °C
25-07-2019  16:20:00
11.32 °C

Die Daten stammen von einer Davis Vantage Pro 2 Wetter-Station und werden unter Linux mit der Software wview2wettercgi und aufbereitet. Alle Angaben erfolgen ohne Gewähr für ihre Vollständigkeit oder Richtigkeit.
Kontakt: Rainer Krienke krienke@uni-koblenz.de . Meine Webseiten an der Uni Koblenz oder privat.
Version: $Revision: 0.78 $